Arlington, Colorado
Current Conditions -  °F | °C
As of 10:53 AM on Sunday 23 Nov 2014 (Local Time) from KLHX Reporting Station
Scattered Clouds Scattered Clouds  
Wind Chill: 35°   Ceiling: Unl
Heat Index: 44°   Visibility: 10mi
Dew Point: 17°   Wind: 22mph
Humidity: 34%   Direction: 10°N
Pressure: 29.79"   Gusts: 29mph
Location:  38.34°N, 103.34°W
Report Text: KLHX 231753Z AUTO 01019G25KT 10SM SCT110 07/M08 A2979 RMK AO2 PK WND 01028/1721 SLP073 T00671083 10072 20033 51018 $
Loading
Personal Weather Stations






























Interactive Weather Map New forecast layout! Learn more

10-Day Weather Forecast

Advertisements
Track Severe Weather on mobile